createdAt,value
2023-04-15T00:02:24.891Z,2.22
2023-04-15T00:04:51.441Z,1.33
2023-04-15T00:07:17.842Z,2.15
2023-04-15T00:09:44.200Z,2.37
2023-04-15T00:12:11.307Z,2.40
2023-04-15T00:14:37.687Z,1.70
2023-04-15T00:17:04.608Z,1.05
2023-04-15T00:19:31.921Z,2.03
2023-04-15T00:21:58.257Z,2.03
2023-04-15T00:24:24.601Z,1.85
2023-04-15T00:26:51.055Z,2.30
2023-04-15T00:29:17.395Z,2.25
2023-04-15T00:31:43.726Z,1.40
2023-04-15T00:34:10.112Z,2.10
2023-04-15T00:36:36.457Z,1.58
2023-04-15T00:39:02.932Z,2.10
2023-04-15T00:41:29.374Z,2.00
2023-04-15T00:43:55.750Z,2.10
2023-04-15T00:46:22.644Z,2.40
2023-04-15T00:48:49.179Z,1.95
2023-04-15T00:51:15.964Z,1.95
2023-04-15T00:53:42.314Z,2.20
2023-04-15T00:56:08.860Z,1.80
2023-04-15T00:58:35.210Z,2.07
2023-04-15T01:01:01.573Z,2.25
2023-04-15T01:03:29.574Z,2.00
2023-04-15T01:05:56.166Z,2.00
2023-04-15T01:08:22.515Z,1.98
2023-04-15T01:10:48.985Z,2.20
2023-04-15T01:13:15.338Z,2.17
2023-04-15T01:15:41.833Z,1.80
2023-04-15T01:18:08.610Z,1.92
2023-04-15T01:20:35.461Z,2.00
2023-04-15T01:23:02.146Z,2.20
2023-04-15T01:25:32.208Z,2.35
2023-04-15T01:27:58.642Z,1.73
2023-04-15T01:30:25.151Z,2.10
2023-04-15T01:32:51.553Z,1.88
2023-04-15T01:35:36.224Z,1.90
2023-04-15T01:38:06.728Z,1.40
2023-04-15T01:40:33.679Z,1.80
2023-04-15T01:43:01.659Z,1.13
2023-04-15T01:45:29.526Z,1.77
2023-04-15T01:47:57.179Z,2.47
2023-04-15T01:50:24.871Z,2.38
2023-04-15T01:52:52.510Z,1.95
2023-04-15T01:55:20.138Z,2.08
2023-04-15T01:57:47.750Z,2.10
2023-04-15T02:00:15.481Z,2.07
2023-04-15T02:02:43.296Z,1.40
2023-04-15T02:05:11.010Z,1.70
2023-04-15T02:07:38.741Z,1.45
2023-04-15T02:10:06.514Z,1.35
2023-04-15T02:12:34.136Z,1.70
2023-04-15T02:15:01.893Z,1.75
2023-04-15T02:17:29.560Z,1.60
2023-04-15T02:19:57.255Z,1.77
2023-04-15T02:22:24.972Z,1.45
2023-04-15T02:24:52.724Z,1.50
2023-04-15T02:27:20.392Z,1.33
2023-04-15T02:29:48.421Z,1.88
2023-04-15T02:32:16.058Z,1.95
2023-04-15T02:34:43.687Z,1.38
2023-04-15T02:37:12.128Z,2.10
2023-04-15T02:39:39.764Z,1.90
2023-04-15T02:42:07.418Z,2.00
2023-04-15T02:44:35.060Z,1.98
2023-04-15T02:47:02.688Z,2.63
2023-04-15T02:49:30.308Z,3.00
2023-04-15T02:51:57.999Z,2.65
2023-04-15T02:54:26.196Z,1.95
2023-04-15T02:56:53.815Z,2.17
2023-04-15T02:59:21.580Z,3.15
2023-04-15T03:01:49.293Z,2.53
2023-04-15T03:04:17.085Z,2.65
2023-04-15T03:06:44.856Z,2.70
2023-04-15T03:09:12.550Z,2.45
2023-04-15T03:11:40.228Z,2.20
2023-04-15T03:14:07.897Z,2.80
2023-04-15T03:16:35.524Z,1.88
2023-04-15T03:19:03.433Z,2.20
2023-04-15T03:21:31.349Z,3.03
2023-04-15T03:23:58.962Z,2.40
2023-04-15T03:26:30.790Z,2.43
2023-04-15T03:28:58.553Z,3.13
2023-04-15T03:31:26.246Z,3.75
2023-04-15T03:33:53.889Z,3.10
2023-04-15T03:36:21.613Z,2.75
2023-04-15T03:38:49.216Z,2.67
2023-04-15T03:41:16.938Z,3.30
2023-04-15T03:43:44.634Z,2.72
2023-04-15T03:46:12.254Z,2.70
2023-04-15T03:48:39.918Z,3.35
2023-04-15T03:51:07.714Z,3.47
2023-04-15T03:53:35.470Z,2.90
2023-04-15T03:56:03.105Z,3.42
2023-04-15T03:58:30.783Z,3.40
2023-04-15T04:00:58.400Z,3.45
2023-04-15T04:03:26.225Z,3.40
2023-04-15T04:05:54.172Z,3.40
2023-04-15T04:08:21.838Z,2.80
2023-04-15T04:10:49.492Z,3.35
2023-04-15T04:13:17.162Z,2.50
2023-04-15T04:15:44.871Z,2.90
2023-04-15T04:18:12.555Z,3.60
2023-04-15T04:20:40.224Z,3.33
2023-04-15T04:23:07.833Z,3.40
2023-04-15T04:25:35.461Z,3.53
2023-04-15T04:28:03.387Z,3.10
2023-04-15T04:30:31.009Z,2.92
2023-04-15T04:32:58.720Z,2.95
2023-04-15T04:35:26.448Z,3.38
2023-04-15T04:37:54.062Z,2.63
2023-04-15T04:40:21.695Z,3.15
2023-04-15T04:42:49.466Z,2.97
2023-04-15T04:45:17.086Z,3.10
2023-04-15T04:47:44.733Z,3.65
2023-04-15T04:50:12.476Z,2.97
2023-04-15T04:52:40.225Z,3.80
2023-04-15T04:55:07.936Z,3.03
2023-04-15T04:57:35.676Z,3.42
2023-04-15T05:00:03.407Z,3.50
2023-04-15T05:02:31.292Z,3.10
2023-04-15T05:04:59.036Z,3.30
2023-04-15T05:07:26.731Z,2.42
2023-04-15T05:09:54.345Z,2.95
2023-04-15T05:12:22.222Z,3.10
2023-04-15T05:14:49.833Z,3.05
2023-04-15T05:17:17.438Z,2.85
2023-04-15T05:19:45.096Z,2.85
2023-04-15T05:22:12.757Z,1.80
2023-04-15T05:24:40.370Z,2.25
2023-04-15T05:27:08.093Z,1.95
2023-04-15T05:29:35.714Z,2.50
2023-04-15T05:32:03.346Z,2.10
2023-04-15T05:34:31.070Z,2.67
2023-04-15T05:36:58.694Z,2.58
2023-04-15T05:39:26.310Z,2.03
2023-04-15T05:41:53.988Z,2.10
2023-04-15T05:44:21.611Z,2.03
2023-04-15T05:46:49.292Z,1.98
2023-04-15T05:49:16.976Z,2.40
2023-04-15T05:51:44.859Z,2.20
2023-04-15T05:54:12.481Z,2.08
2023-04-15T05:56:40.142Z,1.80
2023-04-15T05:59:09.685Z,2.38
2023-04-15T06:01:37.350Z,2.40
2023-04-15T06:04:05.245Z,2.20
2023-04-15T06:06:32.914Z,2.15
2023-04-15T06:09:00.787Z,1.52
2023-04-15T06:11:28.700Z,2.28
2023-04-15T06:13:56.403Z,1.80
2023-04-15T06:16:24.072Z,1.90
2023-04-15T06:18:51.790Z,2.42
2023-04-15T06:21:19.554Z,2.45
2023-04-15T06:23:47.226Z,3.20
2023-04-15T06:26:14.884Z,2.63
2023-04-15T06:28:42.500Z,2.20
2023-04-15T06:31:10.183Z,2.35
2023-04-15T06:33:37.850Z,2.53
2023-04-15T06:36:05.516Z,1.90
2023-04-15T06:38:33.141Z,2.30
2023-04-15T06:41:00.984Z,1.75
2023-04-15T06:43:28.589Z,2.35
2023-04-15T06:45:56.508Z,2.20
2023-04-15T06:48:24.350Z,2.30
2023-04-15T06:50:52.137Z,2.47
2023-04-15T06:53:19.797Z,2.03
2023-04-15T06:55:47.476Z,2.65
2023-04-15T06:58:15.087Z,2.10
2023-04-15T07:00:42.730Z,2.20
2023-04-15T07:03:10.656Z,1.70
2023-04-15T07:05:38.547Z,2.05
2023-04-15T07:08:06.179Z,2.03
2023-04-15T07:10:34.263Z,2.10
2023-04-15T07:13:01.970Z,2.10
2023-04-15T07:15:29.823Z,1.90
2023-04-15T07:17:57.549Z,1.75
2023-04-15T07:20:25.250Z,2.28
2023-04-15T07:22:52.913Z,2.70
2023-04-15T07:25:20.899Z,2.60
2023-04-15T07:27:48.546Z,2.58
2023-04-15T07:30:16.257Z,2.35
2023-04-15T07:32:44.016Z,2.83
2023-04-15T07:35:11.668Z,2.80
2023-04-15T07:37:39.300Z,2.33
2023-04-15T07:40:07.432Z,2.45
2023-04-15T07:42:35.358Z,2.45
2023-04-15T07:45:03.156Z,2.50
2023-04-15T07:47:30.958Z,2.90
2023-04-15T07:49:58.645Z,2.75
2023-04-15T07:52:26.324Z,2.55
2023-04-15T07:54:54.208Z,2.72
2023-04-15T07:57:21.815Z,2.50
2023-04-15T07:59:49.405Z,2.30
2023-04-15T08:02:17.400Z,2.40
2023-04-15T08:04:45.275Z,3.00
2023-04-15T08:07:12.989Z,2.45
2023-04-15T08:09:40.648Z,2.58
2023-04-15T08:12:08.313Z,2.55
2023-04-15T08:14:35.975Z,2.20
2023-04-15T08:17:03.698Z,2.17
2023-04-15T08:19:31.530Z,2.42
2023-04-15T08:21:59.134Z,2.45
2023-04-15T08:24:26.833Z,2.00
2023-04-15T08:26:54.579Z,2.47
2023-04-15T08:29:22.213Z,2.25
2023-04-15T08:31:50.006Z,2.28
2023-04-15T08:34:17.702Z,2.15
2023-04-15T08:36:45.352Z,2.28
2023-04-15T08:39:13.116Z,2.30
2023-04-15T08:41:45.417Z,1.88
2023-04-15T08:44:13.774Z,2.25
2023-04-15T08:46:41.820Z,1.65
2023-04-15T08:49:12.612Z,2.30
2023-04-15T08:51:40.712Z,1.95
2023-04-15T08:54:09.227Z,1.52
2023-04-15T08:56:37.150Z,2.30
2023-04-15T08:59:04.919Z,2.10
2023-04-15T09:01:32.948Z,2.45
2023-04-15T09:04:01.374Z,2.35
2023-04-15T09:06:29.037Z,2.38
2023-04-15T09:08:56.792Z,2.90
2023-04-15T09:11:24.427Z,3.10
2023-04-15T09:13:52.016Z,2.13
2023-04-15T09:16:19.692Z,2.83
2023-04-15T09:18:47.312Z,2.55
2023-04-15T09:21:16.586Z,2.67
2023-04-15T09:23:57.799Z,2.40
2023-04-15T09:26:32.756Z,3.22
2023-04-15T09:29:07.348Z,1.98
2023-04-15T09:31:35.485Z,2.35
2023-04-15T09:34:03.337Z,1.88
2023-04-15T09:36:38.947Z,2.67
2023-04-15T09:39:06.555Z,2.65
2023-04-15T09:41:34.190Z,2.83
2023-04-15T09:44:02.075Z,2.47
2023-04-15T09:46:42.431Z,2.15
2023-04-15T09:49:10.759Z,2.00
2023-04-15T09:51:38.610Z,2.35
2023-04-15T09:54:06.237Z,2.47
2023-04-15T09:56:38.011Z,2.75
2023-04-15T09:59:05.681Z,1.92
2023-04-15T10:01:33.467Z,2.03
2023-04-15T10:04:03.349Z,2.80
2023-04-15T10:06:31.384Z,2.90
2023-04-15T10:08:59.175Z,1.85
2023-04-15T10:11:31.594Z,2.60
2023-04-15T10:14:00.255Z,2.60
2023-04-15T10:16:28.949Z,2.72
2023-04-15T10:18:57.321Z,2.70
2023-04-15T10:21:25.765Z,2.95
2023-04-15T10:23:53.410Z,2.53
2023-04-15T10:26:21.476Z,2.83
2023-04-15T10:28:49.356Z,2.90
2023-04-15T10:31:17.762Z,3.67
2023-04-15T10:33:46.137Z,3.13
2023-04-15T10:36:14.111Z,3.55
2023-04-15T10:38:42.847Z,3.00
2023-04-15T10:41:20.840Z,2.95
2023-04-15T10:43:50.599Z,2.72
2023-04-15T10:46:22.388Z,2.75
2023-04-15T10:48:51.343Z,2.85
2023-04-15T10:51:30.421Z,2.95
2023-04-15T10:54:01.579Z,3.15
2023-04-15T10:56:29.595Z,3.17
2023-04-15T10:58:58.967Z,2.88
2023-04-15T11:01:45.313Z,2.47
2023-04-15T11:04:13.168Z,3.08
2023-04-15T11:06:44.370Z,2.90
2023-04-15T11:09:31.525Z,2.60
2023-04-15T11:12:05.762Z,2.78
2023-04-15T11:14:33.833Z,2.75
2023-04-15T11:17:01.876Z,2.83
2023-04-15T11:19:35.948Z,3.38
2023-04-15T11:22:07.435Z,3.45
2023-04-15T11:24:35.287Z,3.38
2023-04-15T11:27:02.988Z,2.88
2023-04-15T11:29:31.475Z,3.47
2023-04-15T11:32:05.980Z,4.53
2023-04-15T11:34:35.647Z,5.35
2023-04-15T11:37:04.408Z,3.53
2023-04-15T11:39:32.418Z,4.45
2023-04-15T11:42:00.067Z,4.35
2023-04-15T11:44:27.664Z,4.28
2023-04-15T11:46:55.406Z,4.18
2023-04-15T11:49:26.897Z,5.03
2023-04-15T11:51:53.410Z,4.25
2023-04-15T11:54:19.880Z,4.90
2023-04-15T11:56:50.268Z,2.80
2023-04-15T11:59:16.616Z,3.88
2023-04-15T12:01:43.039Z,4.05
2023-04-15T12:04:12.659Z,3.20
2023-04-15T12:06:39.264Z,3.00
2023-04-15T12:09:08.459Z,3.70
2023-04-15T12:11:47.749Z,4.20
2023-04-15T12:14:29.922Z,3.53
2023-04-15T12:17:06.003Z,4.93
2023-04-15T12:19:42.061Z,4.63
2023-04-15T12:22:13.142Z,4.75
2023-04-15T12:24:39.850Z,3.25
2023-04-15T12:27:07.426Z,3.90
2023-04-15T12:29:34.828Z,4.22
2023-04-15T12:32:11.577Z,4.13
2023-04-15T12:34:50.665Z,4.72
2023-04-15T12:37:17.375Z,3.72
2023-04-15T12:39:44.549Z,3.22
2023-04-15T12:42:11.434Z,3.17
2023-04-15T12:44:38.223Z,3.53
2023-04-15T12:47:04.763Z,3.15
2023-04-15T12:49:31.656Z,2.55
2023-04-15T12:51:58.720Z,2.85
2023-04-15T12:54:25.578Z,3.90
2023-04-15T12:56:51.938Z,4.05
2023-04-15T12:59:18.462Z,3.53
2023-04-15T13:01:45.493Z,2.67
2023-04-15T13:04:12.002Z,3.05
2023-04-15T13:06:38.527Z,4.13
2023-04-15T13:09:05.922Z,2.67
2023-04-15T13:11:33.176Z,4.30
2023-04-15T13:14:03.902Z,2.72
2023-04-15T13:16:30.909Z,3.10
2023-04-15T13:18:57.830Z,3.97
2023-04-15T13:21:24.355Z,3.53
2023-04-15T13:23:50.714Z,3.63
2023-04-15T13:26:17.671Z,4.13
2023-04-15T13:28:44.159Z,3.30
2023-04-15T13:31:10.492Z,3.45
2023-04-15T13:33:36.933Z,2.83
2023-04-15T13:36:03.532Z,3.30
2023-04-15T13:38:29.917Z,3.13
2023-04-15T13:40:56.262Z,3.60
2023-04-15T13:43:22.727Z,2.95
2023-04-15T13:45:49.599Z,3.33
2023-04-15T13:48:15.947Z,3.80
2023-04-15T13:50:42.434Z,4.05
2023-04-15T13:53:09.074Z,4.35
2023-04-15T13:55:35.452Z,4.10
2023-04-15T13:58:01.964Z,3.63
2023-04-15T14:00:28.347Z,4.03
2023-04-15T14:02:54.809Z,3.72
2023-04-15T14:05:21.618Z,3.40
2023-04-15T14:07:47.994Z,4.90
2023-04-15T14:10:14.397Z,4.00
2023-04-15T14:12:41.084Z,4.38
2023-04-15T14:15:07.931Z,4.63
2023-04-15T14:17:34.320Z,6.00
2023-04-15T14:20:00.770Z,5.15
2023-04-15T14:22:27.118Z,6.65
2023-04-15T14:24:53.455Z,6.95
2023-04-15T14:27:20.016Z,8.60
2023-04-15T14:29:46.366Z,7.00
2023-04-15T14:32:13.042Z,8.05
2023-04-15T14:34:39.910Z,8.40
2023-04-15T14:37:06.495Z,8.45
2023-04-15T14:39:33.008Z,6.28
2023-04-15T14:41:59.400Z,5.90
2023-04-15T14:44:26.587Z,4.50
2023-04-15T14:46:52.951Z,4.68
2023-04-15T14:49:19.608Z,4.50
2023-04-15T14:51:46.175Z,5.78
2023-04-15T14:54:12.523Z,4.35
2023-04-15T14:56:38.915Z,3.65
2023-04-15T14:59:05.422Z,4.20
2023-04-15T15:01:31.955Z,4.10
2023-04-15T15:03:58.540Z,4.63
2023-04-15T15:06:24.944Z,3.85
2023-04-15T15:08:51.305Z,2.53
2023-04-15T15:11:17.759Z,3.92
2023-04-15T15:13:44.108Z,2.47
2023-04-15T15:16:12.449Z,3.30
2023-04-15T15:18:40.289Z,3.00
2023-04-15T15:21:06.650Z,2.60
2023-04-15T15:23:33.012Z,2.95
2023-04-15T15:25:59.452Z,2.47
2023-04-15T15:28:25.869Z,2.65
2023-04-15T15:30:52.314Z,3.58
2023-04-15T15:33:18.916Z,2.30
2023-04-15T15:35:45.278Z,3.13
2023-04-15T15:38:11.857Z,1.75
2023-04-15T15:40:38.300Z,2.45
2023-04-15T15:43:04.683Z,2.65
2023-04-15T15:45:31.267Z,2.75
2023-04-15T15:47:57.943Z,2.90
2023-04-15T15:50:24.393Z,1.92
2023-04-15T15:52:51.046Z,2.08
2023-04-15T15:55:17.572Z,2.25
2023-04-15T15:57:43.910Z,2.95
2023-04-15T16:00:12.574Z,3.25
2023-04-15T16:03:05.112Z,3.28
2023-04-15T16:05:26.095Z,2.85
2023-04-15T16:07:52.540Z,3.42
2023-04-15T16:10:18.877Z,2.70
2023-04-15T16:12:45.308Z,2.63
2023-04-15T16:15:12.349Z,1.95
2023-04-15T16:17:38.788Z,2.13
2023-04-15T16:20:05.835Z,5.35
2023-04-15T16:22:33.148Z,2.58
2023-04-15T16:24:59.583Z,3.78
2023-04-15T16:27:26.162Z,3.30
2023-04-15T16:29:52.731Z,2.75
2023-04-15T16:32:19.330Z,2.10
2023-04-15T16:34:45.765Z,2.70
2023-04-15T16:37:12.143Z,2.22
2023-04-15T16:39:38.474Z,2.72
2023-04-15T16:42:04.872Z,3.17
2023-04-15T16:44:31.320Z,2.45
2023-04-15T16:46:57.872Z,3.00
2023-04-15T16:49:24.220Z,1.77
2023-04-15T16:51:54.638Z,3.78
2023-04-15T16:54:21.097Z,3.70
2023-04-15T16:56:47.425Z,3.70
2023-04-15T16:59:13.806Z,3.70
2023-04-15T17:01:40.241Z,3.50
2023-04-15T17:04:07.184Z,2.95
2023-04-15T17:06:33.649Z,3.03
2023-04-15T17:08:59.996Z,2.58
2023-04-15T17:11:27.286Z,2.10
2023-04-15T17:13:53.705Z,2.38
2023-04-15T17:16:20.204Z,2.05
2023-04-15T17:18:46.734Z,2.20
2023-04-15T17:21:18.251Z,1.77
2023-04-15T17:23:48.338Z,1.77
2023-04-15T17:26:15.460Z,4.23
2023-04-15T17:28:42.244Z,2.50
2023-04-15T17:31:13.231Z,3.53
2023-04-15T17:34:08.272Z,3.05
2023-04-15T17:36:36.483Z,4.70
2023-04-15T17:39:22.913Z,3.93
2023-04-15T17:42:12.528Z,2.67
2023-04-15T17:44:58.916Z,3.53
2023-04-15T17:47:46.131Z,3.55
2023-04-15T17:50:32.537Z,4.38
2023-04-15T17:53:19.032Z,1.92
2023-04-15T17:56:05.671Z,3.15
2023-04-15T17:58:51.977Z,3.22
2023-04-15T18:01:38.543Z,3.03
2023-04-15T18:04:26.452Z,3.20
2023-04-15T18:07:14.958Z,4.30
2023-04-15T18:10:01.338Z,3.60
2023-04-15T18:12:47.998Z,2.83
2023-04-15T18:15:34.667Z,3.80
2023-04-15T18:18:21.073Z,3.33
2023-04-15T18:20:59.899Z,2.77
2023-04-15T18:23:26.780Z,3.20
2023-04-15T18:25:53.270Z,3.22
2023-04-15T18:28:19.714Z,2.95
2023-04-15T18:30:46.177Z,3.50
2023-04-15T18:33:12.613Z,3.00
2023-04-15T18:35:39.068Z,2.90
2023-04-15T18:38:05.525Z,3.10
2023-04-15T18:40:31.941Z,4.13
2023-04-15T18:42:58.356Z,4.55
2023-04-15T18:45:24.966Z,2.43
2023-04-15T18:47:51.609Z,3.13
2023-04-15T18:50:18.176Z,4.88
2023-04-15T18:52:44.644Z,3.20
2023-04-15T18:55:11.175Z,3.90
2023-04-15T18:57:37.707Z,4.43
2023-04-15T19:00:04.678Z,3.10
2023-04-15T19:02:31.141Z,3.95
2023-04-15T19:04:57.582Z,3.67
2023-04-15T19:07:23.968Z,5.03
2023-04-15T19:09:50.299Z,3.17
2023-04-15T19:12:16.635Z,3.45
2023-04-15T19:14:43.064Z,2.65
2023-04-15T19:17:09.444Z,2.70
2023-04-15T19:19:35.800Z,3.35
2023-04-15T19:22:02.251Z,4.07
2023-04-15T19:24:29.787Z,1.77
2023-04-15T19:26:56.916Z,2.90
2023-04-15T19:29:24.116Z,3.67
2023-04-15T19:31:50.476Z,3.95
2023-04-15T19:34:17.047Z,3.50
2023-04-15T19:36:43.510Z,3.72
2023-04-15T19:39:10.009Z,2.60
2023-04-15T19:41:36.490Z,3.10
2023-04-15T19:44:02.866Z,2.60
2023-04-15T19:46:29.312Z,3.70
2023-04-15T19:48:55.725Z,3.17
2023-04-15T19:51:22.253Z,2.65
2023-04-15T19:53:48.894Z,3.17
2023-04-15T19:56:15.559Z,3.03
2023-04-15T19:58:42.021Z,3.40
2023-04-15T20:01:08.389Z,3.55
2023-04-15T20:03:34.860Z,3.13
2023-04-15T20:06:01.381Z,3.75
2023-04-15T20:08:27.725Z,3.33
2023-04-15T20:10:54.067Z,3.03
2023-04-15T20:13:20.565Z,2.67
2023-04-15T20:15:46.950Z,3.33
2023-04-15T20:18:13.368Z,2.53
2023-04-15T20:20:39.784Z,4.03
2023-04-15T20:23:06.228Z,2.40
2023-04-15T20:25:32.592Z,3.47
2023-04-15T20:28:00.979Z,2.97
2023-04-15T20:30:27.580Z,3.70
2023-04-15T20:32:54.005Z,3.67
2023-04-15T20:35:20.427Z,2.70
2023-04-15T20:37:48.333Z,3.63
2023-04-15T20:40:14.776Z,3.53
2023-04-15T20:42:41.174Z,3.28
2023-04-15T20:45:07.890Z,2.90
2023-04-15T20:47:34.279Z,2.30
2023-04-15T20:50:00.842Z,4.78
2023-04-15T20:52:27.472Z,2.70
2023-04-15T20:54:53.849Z,3.53
2023-04-15T20:57:20.329Z,5.47
2023-04-15T20:59:46.746Z,5.00
2023-04-15T21:02:13.193Z,4.88
2023-04-15T21:04:39.790Z,5.57
2023-04-15T21:07:06.192Z,3.30
2023-04-15T21:09:32.544Z,4.28
2023-04-15T21:12:01.658Z,4.13
2023-04-15T21:14:28.501Z,5.50
2023-04-15T21:16:54.994Z,4.50
2023-04-15T21:19:21.405Z,6.75
2023-04-15T21:21:47.763Z,5.93
2023-04-15T21:24:14.342Z,6.40
2023-04-15T21:26:40.767Z,4.63
2023-04-15T21:29:09.579Z,6.10
2023-04-15T21:31:37.713Z,6.70
2023-04-15T21:34:04.181Z,7.25
2023-04-15T21:36:30.542Z,5.33
2023-04-15T21:38:56.902Z,5.50
2023-04-15T21:41:23.303Z,4.97
2023-04-15T21:43:49.659Z,4.70
2023-04-15T21:46:23.124Z,5.85
2023-04-15T21:48:52.885Z,5.80
2023-04-15T21:51:19.340Z,5.20
2023-04-15T21:53:46.476Z,5.18
2023-04-15T21:56:12.971Z,4.78
2023-04-15T21:58:39.359Z,3.78
2023-04-15T22:01:05.800Z,5.87
2023-04-15T22:03:33.460Z,3.42
2023-04-15T22:06:00.848Z,4.88
2023-04-15T22:08:27.214Z,4.93
2023-04-15T22:10:53.957Z,4.13
2023-04-15T22:13:20.311Z,3.90
2023-04-15T22:15:46.670Z,3.58
2023-04-15T22:18:13.439Z,5.32
2023-04-15T22:20:39.852Z,5.93
2023-04-15T22:23:06.269Z,3.75
2023-04-15T22:25:32.695Z,7.90
2023-04-15T22:27:59.092Z,25.27
2023-04-15T22:30:25.523Z,52.33
2023-04-15T22:32:51.978Z,36.17
2023-04-15T22:35:18.418Z,9.43
2023-04-15T22:37:44.792Z,14.13
2023-04-15T22:40:11.509Z,29.10
2023-04-15T22:42:37.850Z,31.45
2023-04-15T22:45:04.399Z,31.13
2023-04-15T22:47:31.137Z,31.58
2023-04-15T22:49:57.498Z,29.93
2023-04-15T22:52:30.625Z,72.05
2023-04-15T22:54:58.247Z,80.82
2023-04-15T22:57:24.872Z,64.43
2023-04-15T22:59:51.283Z,28.20
2023-04-15T23:02:17.947Z,6.53
2023-04-15T23:04:44.525Z,3.67
2023-04-15T23:07:11.146Z,5.63
2023-04-15T23:09:38.175Z,3.25
2023-04-15T23:12:04.506Z,4.30
2023-04-15T23:14:30.887Z,5.57
2023-04-15T23:16:57.646Z,15.75
2023-04-15T23:19:24.401Z,4.97
2023-04-15T23:21:51.020Z,2.72
2023-04-15T23:24:17.467Z,4.30
2023-04-15T23:26:43.982Z,6.27
2023-04-15T23:29:10.578Z,4.45
2023-04-15T23:31:37.150Z,4.05
2023-04-15T23:34:03.531Z,4.03
2023-04-15T23:36:29.929Z,3.47
2023-04-15T23:38:56.355Z,3.87
2023-04-15T23:41:22.731Z,3.35
2023-04-15T23:43:49.081Z,3.47
2023-04-15T23:46:15.534Z,4.72
2023-04-15T23:48:41.893Z,4.18
2023-04-15T23:51:08.392Z,3.67
2023-04-15T23:53:34.783Z,3.20
2023-04-15T23:56:01.317Z,6.03
2023-04-15T23:58:27.656Z,2.67
